sensor_id;sensor_type;location;lat;lon;timestamp;P1;durP1;ratioP1;P2;durP2;ratioP2
19946;SDS011;10135;50.702;7.276;2022-07-29T00:01:45;1.38;;;1.38;;
19946;SDS011;10135;50.702;7.276;2022-07-29T00:03:46;2.28;;;1.75;;
19946;SDS011;10135;50.702;7.276;2022-07-29T00:05:47;1.58;;;1.50;;
19946;SDS011;10135;50.702;7.276;2022-07-29T00:07:48;4.22;;;1.35;;
19946;SDS011;10135;50.702;7.276;2022-07-29T00:09:48;1.77;;;1.55;;
19946;SDS011;10135;50.702;7.276;2022-07-29T00:11:49;1.83;;;1.65;;
19946;SDS011;10135;50.702;7.276;2022-07-29T00:13:50;1.60;;;1.50;;
19946;SDS011;10135;50.702;7.276;2022-07-29T00:15:50;1.52;;;1.52;;
19946;SDS011;10135;50.702;7.276;2022-07-29T00:17:51;4.05;;;1.67;;
19946;SDS011;10135;50.702;7.276;2022-07-29T00:19:52;2.15;;;1.58;;
19946;SDS011;10135;50.702;7.276;2022-07-29T00:21:53;1.83;;;1.70;;
19946;SDS011;10135;50.702;7.276;2022-07-29T00:23:53;2.10;;;1.38;;
19946;SDS011;10135;50.702;7.276;2022-07-29T00:25:54;1.77;;;1.67;;
19946;SDS011;10135;50.702;7.276;2022-07-29T00:27:55;1.70;;;1.60;;
19946;SDS011;10135;50.702;7.276;2022-07-29T00:29:55;4.13;;;2.03;;
19946;SDS011;10135;50.702;7.276;2022-07-29T00:31:56;1.70;;;1.60;;
19946;SDS011;10135;50.702;7.276;2022-07-29T00:33:57;1.58;;;1.50;;
19946;SDS011;10135;50.702;7.276;2022-07-29T00:35:57;2.92;;;1.70;;
19946;SDS011;10135;50.702;7.276;2022-07-29T00:37:58;3.72;;;1.83;;
19946;SDS011;10135;50.702;7.276;2022-07-29T00:39:58;2.35;;;1.67;;
19946;SDS011;10135;50.702;7.276;2022-07-29T00:42:01;3.13;;;1.67;;
19946;SDS011;10135;50.702;7.276;2022-07-29T00:44:05;2.25;;;1.60;;
19946;SDS011;10135;50.702;7.276;2022-07-29T00:46:06;1.80;;;1.70;;
19946;SDS011;10135;50.702;7.276;2022-07-29T00:48:06;1.50;;;1.50;;
19946;SDS011;10135;50.702;7.276;2022-07-29T00:50:09;2.72;;;1.60;;
19946;SDS011;10135;50.702;7.276;2022-07-29T00:52:12;1.75;;;1.65;;
19946;SDS011;10135;50.702;7.276;2022-07-29T00:54:13;1.60;;;1.50;;
19946;SDS011;10135;50.702;7.276;2022-07-29T00:56:14;1.52;;;1.52;;
19946;SDS011;10135;50.702;7.276;2022-07-29T00:58:15;1.95;;;1.80;;
19946;SDS011;10135;50.702;7.276;2022-07-29T01:00:23;1.70;;;1.70;;
19946;SDS011;10135;50.702;7.276;2022-07-29T01:02:26;1.70;;;1.60;;
19946;SDS011;10135;50.702;7.276;2022-07-29T01:04:27;1.80;;;1.70;;
19946;SDS011;10135;50.702;7.276;2022-07-29T01:06:29;2.17;;;1.92;;
19946;SDS011;10135;50.702;7.276;2022-07-29T01:08:30;2.75;;;1.90;;
19946;SDS011;10135;50.702;7.276;2022-07-29T01:10:32;1.50;;;1.40;;
19946;SDS011;10135;50.702;7.276;2022-07-29T01:12:37;3.55;;;1.42;;
19946;SDS011;10135;50.702;7.276;2022-07-29T01:14:38;1.75;;;1.65;;
19946;SDS011;10135;50.702;7.276;2022-07-29T01:16:45;1.80;;;1.70;;
19946;SDS011;10135;50.702;7.276;2022-07-29T01:19:07;3.22;;;1.73;;
19946;SDS011;10135;50.702;7.276;2022-07-29T01:21:51;2.00;;;1.75;;
19946;SDS011;10135;50.702;7.276;2022-07-29T01:26:41;1.58;;;1.48;;
19946;SDS011;10135;50.702;7.276;2022-07-29T01:29:00;1.60;;;1.50;;
19946;SDS011;10135;50.702;7.276;2022-07-29T01:31:07;1.85;;;1.70;;
19946;SDS011;10135;50.702;7.276;2022-07-29T01:33:13;2.00;;;1.90;;
19946;SDS011;10135;50.702;7.276;2022-07-29T01:35:39;1.70;;;1.70;;
19946;SDS011;10135;50.702;7.276;2022-07-29T01:40:57;1.90;;;1.80;;
19946;SDS011;10135;50.702;7.276;2022-07-29T01:42:54;2.90;;;1.75;;
19946;SDS011;10135;50.702;7.276;2022-07-29T01:45:10;1.90;;;1.80;;
19946;SDS011;10135;50.702;7.276;2022-07-29T01:47:19;1.85;;;1.40;;
19946;SDS011;10135;50.702;7.276;2022-07-29T01:49:26;4.10;;;1.80;;
19946;SDS011;10135;50.702;7.276;2022-07-29T01:51:32;2.35;;;1.60;;
19946;SDS011;10135;50.702;7.276;2022-07-29T01:56:10;2.63;;;1.55;;
19946;SDS011;10135;50.702;7.276;2022-07-29T01:58:14;2.05;;;1.50;;
19946;SDS011;10135;50.702;7.276;2022-07-29T02:00:19;1.60;;;1.50;;
19946;SDS011;10135;50.702;7.276;2022-07-29T02:02:22;1.70;;;1.52;;
19946;SDS011;10135;50.702;7.276;2022-07-29T02:04:26;2.88;;;1.58;;
19946;SDS011;10135;50.702;7.276;2022-07-29T02:06:29;1.48;;;1.40;;
19946;SDS011;10135;50.702;7.276;2022-07-29T02:08:33;1.40;;;1.40;;
19946;SDS011;10135;50.702;7.276;2022-07-29T02:10:38;2.95;;;1.45;;
19946;SDS011;10135;50.702;7.276;2022-07-29T02:12:42;1.95;;;1.60;;
19946;SDS011;10135;50.702;7.276;2022-07-29T02:14:45;1.35;;;1.35;;
19946;SDS011;10135;50.702;7.276;2022-07-29T02:16:52;2.65;;;1.73;;
19946;SDS011;10135;50.702;7.276;2022-07-29T02:18:55;1.90;;;1.80;;
19946;SDS011;10135;50.702;7.276;2022-07-29T02:21:00;2.05;;;1.50;;
19946;SDS011;10135;50.702;7.276;2022-07-29T02:23:03;2.08;;;1.88;;
19946;SDS011;10135;50.702;7.276;2022-07-29T02:25:05;1.88;;;1.65;;
19946;SDS011;10135;50.702;7.276;2022-07-29T02:27:10;3.08;;;1.73;;
19946;SDS011;10135;50.702;7.276;2022-07-29T02:29:15;2.95;;;1.60;;
19946;SDS011;10135;50.702;7.276;2022-07-29T02:31:19;1.80;;;1.70;;
19946;SDS011;10135;50.702;7.276;2022-07-29T02:33:31;3.78;;;1.80;;
19946;SDS011;10135;50.702;7.276;2022-07-29T02:35:33;1.88;;;1.77;;
19946;SDS011;10135;50.702;7.276;2022-07-29T02:37:35;1.83;;;1.70;;
19946;SDS011;10135;50.702;7.276;2022-07-29T02:39:37;1.83;;;1.73;;
19946;SDS011;10135;50.702;7.276;2022-07-29T02:41:46;1.50;;;1.50;;
19946;SDS011;10135;50.702;7.276;2022-07-29T02:43:55;1.80;;;1.70;;
19946;SDS011;10135;50.702;7.276;2022-07-29T02:46:02;1.80;;;1.70;;
19946;SDS011;10135;50.702;7.276;2022-07-29T02:48:10;2.95;;;1.67;;
19946;SDS011;10135;50.702;7.276;2022-07-29T02:50:38;2.45;;;1.50;;
19946;SDS011;10135;50.702;7.276;2022-07-29T02:52:57;1.95;;;1.85;;
19946;SDS011;10135;50.702;7.276;2022-07-29T02:57:47;2.72;;;1.58;;
19946;SDS011;10135;50.702;7.276;2022-07-29T03:00:06;2.97;;;1.73;;
19946;SDS011;10135;50.702;7.276;2022-07-29T03:02:09;2.35;;;2.08;;
19946;SDS011;10135;50.702;7.276;2022-07-29T03:04:12;2.03;;;1.80;;
19946;SDS011;10135;50.702;7.276;2022-07-29T03:06:17;5.50;;;1.80;;
19946;SDS011;10135;50.702;7.276;2022-07-29T03:08:20;1.60;;;1.50;;
19946;SDS011;10135;50.702;7.276;2022-07-29T03:10:23;2.00;;;1.90;;
19946;SDS011;10135;50.702;7.276;2022-07-29T03:12:26;1.60;;;1.50;;
19946;SDS011;10135;50.702;7.276;2022-07-29T03:14:28;2.27;;;1.70;;
19946;SDS011;10135;50.702;7.276;2022-07-29T03:16:31;1.80;;;1.60;;
19946;SDS011;10135;50.702;7.276;2022-07-29T03:18:36;4.40;;;1.60;;
19946;SDS011;10135;50.702;7.276;2022-07-29T03:20:38;1.45;;;1.42;;
19946;SDS011;10135;50.702;7.276;2022-07-29T03:22:40;2.70;;;1.40;;
19946;SDS011;10135;50.702;7.276;2022-07-29T03:24:43;2.50;;;1.70;;
19946;SDS011;10135;50.702;7.276;2022-07-29T03:26:44;1.98;;;1.55;;
19946;SDS011;10135;50.702;7.276;2022-07-29T03:28:44;1.80;;;1.70;;
19946;SDS011;10135;50.702;7.276;2022-07-29T03:30:45;1.63;;;1.57;;
19946;SDS011;10135;50.702;7.276;2022-07-29T03:32:46;1.80;;;1.70;;
19946;SDS011;10135;50.702;7.276;2022-07-29T03:34:48;1.83;;;1.65;;
19946;SDS011;10135;50.702;7.276;2022-07-29T03:36:49;2.70;;;1.90;;
19946;SDS011;10135;50.702;7.276;2022-07-29T03:38:50;2.33;;;1.60;;
19946;SDS011;10135;50.702;7.276;2022-07-29T03:40:54;1.85;;;1.67;;
19946;SDS011;10135;50.702;7.276;2022-07-29T03:43:01;1.80;;;1.73;;
19946;SDS011;10135;50.702;7.276;2022-07-29T03:45:09;2.20;;;1.70;;
19946;SDS011;10135;50.702;7.276;2022-07-29T03:47:16;3.30;;;1.80;;
19946;SDS011;10135;50.702;7.276;2022-07-29T03:49:22;2.67;;;1.87;;
19946;SDS011;10135;50.702;7.276;2022-07-29T03:51:25;2.43;;;1.90;;
19946;SDS011;10135;50.702;7.276;2022-07-29T03:53:26;2.30;;;1.70;;
19946;SDS011;10135;50.702;7.276;2022-07-29T03:55:28;1.85;;;1.75;;
19946;SDS011;10135;50.702;7.276;2022-07-29T03:57:36;3.23;;;1.80;;
19946;SDS011;10135;50.702;7.276;2022-07-29T03:59:40;2.07;;;1.97;;
19946;SDS011;10135;50.702;7.276;2022-07-29T04:01:43;2.57;;;1.70;;
19946;SDS011;10135;50.702;7.276;2022-07-29T04:03:45;2.37;;;2.27;;
19946;SDS011;10135;50.702;7.276;2022-07-29T04:05:57;2.00;;;1.80;;
19946;SDS011;10135;50.702;7.276;2022-07-29T04:07:59;2.63;;;2.43;;
19946;SDS011;10135;50.702;7.276;2022-07-29T04:10:00;2.00;;;1.90;;
19946;SDS011;10135;50.702;7.276;2022-07-29T04:12:01;3.13;;;1.90;;
19946;SDS011;10135;50.702;7.276;2022-07-29T04:14:01;1.97;;;1.87;;
19946;SDS011;10135;50.702;7.276;2022-07-29T04:16:02;2.93;;;1.87;;
19946;SDS011;10135;50.702;7.276;2022-07-29T04:18:03;3.23;;;2.00;;
19946;SDS011;10135;50.702;7.276;2022-07-29T04:20:04;2.30;;;1.80;;
19946;SDS011;10135;50.702;7.276;2022-07-29T04:22:05;4.70;;;2.00;;
19946;SDS011;10135;50.702;7.276;2022-07-29T04:24:06;3.27;;;1.60;;
19946;SDS011;10135;50.702;7.276;2022-07-29T04:26:07;1.63;;;1.63;;
19946;SDS011;10135;50.702;7.276;2022-07-29T04:28:09;3.80;;;1.70;;
19946;SDS011;10135;50.702;7.276;2022-07-29T04:30:10;2.10;;;2.00;;
19946;SDS011;10135;50.702;7.276;2022-07-29T04:32:12;3.27;;;1.77;;
19946;SDS011;10135;50.702;7.276;2022-07-29T04:34:12;2.07;;;1.80;;
19946;SDS011;10135;50.702;7.276;2022-07-29T04:36:13;4.40;;;1.73;;
19946;SDS011;10135;50.702;7.276;2022-07-29T04:38:14;1.97;;;1.70;;
19946;SDS011;10135;50.702;7.276;2022-07-29T04:40:14;3.83;;;2.03;;
19946;SDS011;10135;50.702;7.276;2022-07-29T04:42:15;1.73;;;1.63;;
19946;SDS011;10135;50.702;7.276;2022-07-29T04:44:16;1.90;;;1.80;;
19946;SDS011;10135;50.702;7.276;2022-07-29T04:46:17;2.10;;;2.00;;
19946;SDS011;10135;50.702;7.276;2022-07-29T04:48:17;2.43;;;2.07;;
19946;SDS011;10135;50.702;7.276;2022-07-29T04:50:18;1.90;;;1.80;;
19946;SDS011;10135;50.702;7.276;2022-07-29T04:52:19;3.07;;;1.77;;
19946;SDS011;10135;50.702;7.276;2022-07-29T04:54:19;1.80;;;1.70;;
19946;SDS011;10135;50.702;7.276;2022-07-29T04:56:20;2.90;;;1.67;;
19946;SDS011;10135;50.702;7.276;2022-07-29T04:58:21;1.97;;;1.87;;
19946;SDS011;10135;50.702;7.276;2022-07-29T05:00:23;2.57;;;1.70;;
19946;SDS011;10135;50.702;7.276;2022-07-29T05:02:24;1.77;;;1.70;;
19946;SDS011;10135;50.702;7.276;2022-07-29T05:04:24;3.60;;;2.20;;
19946;SDS011;10135;50.702;7.276;2022-07-29T05:06:25;1.90;;;1.90;;
19946;SDS011;10135;50.702;7.276;2022-07-29T05:08:26;2.37;;;2.07;;
19946;SDS011;10135;50.702;7.276;2022-07-29T05:10:27;2.07;;;1.80;;
19946;SDS011;10135;50.702;7.276;2022-07-29T05:12:28;5.73;;;2.00;;
19946;SDS011;10135;50.702;7.276;2022-07-29T05:14:29;2.20;;;2.00;;
19946;SDS011;10135;50.702;7.276;2022-07-29T05:16:30;3.37;;;1.80;;
19946;SDS011;10135;50.702;7.276;2022-07-29T05:18:31;3.70;;;1.80;;
19946;SDS011;10135;50.702;7.276;2022-07-29T05:20:31;2.40;;;2.20;;
19946;SDS011;10135;50.702;7.276;2022-07-29T05:22:34;4.32;;;2.00;;
19946;SDS011;10135;50.702;7.276;2022-07-29T05:24:34;3.20;;;2.20;;
19946;SDS011;10135;50.702;7.276;2022-07-29T05:26:35;7.45;;;2.00;;
19946;SDS011;10135;50.702;7.276;2022-07-29T05:28:36;3.23;;;2.20;;
19946;SDS011;10135;50.702;7.276;2022-07-29T05:30:37;3.15;;;2.40;;
19946;SDS011;10135;50.702;7.276;2022-07-29T05:32:37;3.88;;;2.20;;
19946;SDS011;10135;50.702;7.276;2022-07-29T05:34:38;2.40;;;2.20;;
19946;SDS011;10135;50.702;7.276;2022-07-29T05:36:40;2.67;;;2.30;;
19946;SDS011;10135;50.702;7.276;2022-07-29T05:38:40;5.78;;;2.47;;
19946;SDS011;10135;50.702;7.276;2022-07-29T05:40:41;2.60;;;2.40;;
19946;SDS011;10135;50.702;7.276;2022-07-29T05:42:41;2.67;;;2.47;;
19946;SDS011;10135;50.702;7.276;2022-07-29T05:44:42;3.40;;;2.50;;
19946;SDS011;10135;50.702;7.276;2022-07-29T05:46:43;2.60;;;2.40;;
19946;SDS011;10135;50.702;7.276;2022-07-29T05:48:43;4.13;;;2.17;;
19946;SDS011;10135;50.702;7.276;2022-07-29T05:50:44;3.10;;;2.40;;
19946;SDS011;10135;50.702;7.276;2022-07-29T05:52:45;2.10;;;1.90;;
19946;SDS011;10135;50.702;7.276;2022-07-29T05:54:45;3.13;;;1.90;;
19946;SDS011;10135;50.702;7.276;2022-07-29T05:56:46;2.55;;;1.80;;
19946;SDS011;10135;50.702;7.276;2022-07-29T05:58:47;3.38;;;2.00;;
19946;SDS011;10135;50.702;7.276;2022-07-29T06:00:47;2.53;;;1.77;;
19946;SDS011;10135;50.702;7.276;2022-07-29T06:02:48;1.95;;;1.77;;
19946;SDS011;10135;50.702;7.276;2022-07-29T06:04:49;5.97;;;2.10;;
19946;SDS011;10135;50.702;7.276;2022-07-29T06:06:50;3.80;;;2.25;;
19946;SDS011;10135;50.702;7.276;2022-07-29T06:08:50;1.83;;;1.70;;
19946;SDS011;10135;50.702;7.276;2022-07-29T06:10:51;3.90;;;1.65;;
19946;SDS011;10135;50.702;7.276;2022-07-29T06:12:52;2.35;;;1.60;;
19946;SDS011;10135;50.702;7.276;2022-07-29T06:14:53;2.80;;;2.08;;
19946;SDS011;10135;50.702;7.276;2022-07-29T06:16:54;2.72;;;1.80;;
19946;SDS011;10135;50.702;7.276;2022-07-29T06:18:55;4.53;;;2.00;;
19946;SDS011;10135;50.702;7.276;2022-07-29T06:20:56;4.78;;;2.25;;
19946;SDS011;10135;50.702;7.276;2022-07-29T06:22:57;3.10;;;2.00;;
19946;SDS011;10135;50.702;7.276;2022-07-29T06:25:00;1.92;;;1.80;;
19946;SDS011;10135;50.702;7.276;2022-07-29T06:27:02;2.50;;;2.15;;
19946;SDS011;10135;50.702;7.276;2022-07-29T06:29:03;4.22;;;1.80;;
19946;SDS011;10135;50.702;7.276;2022-07-29T06:31:04;2.72;;;2.05;;
19946;SDS011;10135;50.702;7.276;2022-07-29T06:33:05;2.55;;;2.03;;
19946;SDS011;10135;50.702;7.276;2022-07-29T06:35:06;3.45;;;2.05;;
19946;SDS011;10135;50.702;7.276;2022-07-29T06:37:08;6.05;;;2.20;;
19946;SDS011;10135;50.702;7.276;2022-07-29T06:39:09;2.38;;;2.17;;
19946;SDS011;10135;50.702;7.276;2022-07-29T06:41:09;2.70;;;1.90;;
19946;SDS011;10135;50.702;7.276;2022-07-29T06:43:12;3.28;;;1.90;;
19946;SDS011;10135;50.702;7.276;2022-07-29T06:45:13;3.35;;;2.03;;
19946;SDS011;10135;50.702;7.276;2022-07-29T06:47:13;2.20;;;2.10;;
19946;SDS011;10135;50.702;7.276;2022-07-29T06:49:14;4.65;;;2.30;;
19946;SDS011;10135;50.702;7.276;2022-07-29T06:51:15;1.85;;;1.75;;
19946;SDS011;10135;50.702;7.276;2022-07-29T06:53:17;3.75;;;1.90;;
19946;SDS011;10135;50.702;7.276;2022-07-29T06:55:17;2.10;;;2.00;;
19946;SDS011;10135;50.702;7.276;2022-07-29T06:57:19;3.05;;;2.00;;
19946;SDS011;10135;50.702;7.276;2022-07-29T06:59:20;3.17;;;2.00;;
19946;SDS011;10135;50.702;7.276;2022-07-29T07:01:21;1.92;;;1.77;;
19946;SDS011;10135;50.702;7.276;2022-07-29T07:03:21;2.00;;;1.80;;
19946;SDS011;10135;50.702;7.276;2022-07-29T07:05:23;2.92;;;2.03;;
19946;SDS011;10135;50.702;7.276;2022-07-29T07:07:24;3.78;;;2.10;;
19946;SDS011;10135;50.702;7.276;2022-07-29T07:09:25;2.08;;;1.80;;
19946;SDS011;10135;50.702;7.276;2022-07-29T07:11:26;3.42;;;2.03;;
19946;SDS011;10135;50.702;7.276;2022-07-29T07:13:27;2.38;;;2.17;;
19946;SDS011;10135;50.702;7.276;2022-07-29T07:15:31;3.15;;;2.03;;
19946;SDS011;10135;50.702;7.276;2022-07-29T07:17:32;3.97;;;2.00;;
19946;SDS011;10135;50.702;7.276;2022-07-29T07:19:32;2.13;;;1.90;;
19946;SDS011;10135;50.702;7.276;2022-07-29T07:21:33;2.05;;;1.95;;
19946;SDS011;10135;50.702;7.276;2022-07-29T07:23:34;2.42;;;2.15;;
19946;SDS011;10135;50.702;7.276;2022-07-29T07:25:34;5.43;;;2.30;;
19946;SDS011;10135;50.702;7.276;2022-07-29T07:27:35;2.53;;;2.10;;
19946;SDS011;10135;50.702;7.276;2022-07-29T07:29:36;2.05;;;1.95;;
19946;SDS011;10135;50.702;7.276;2022-07-29T07:31:40;5.90;;;1.83;;
19946;SDS011;10135;50.702;7.276;2022-07-29T07:33:41;2.83;;;1.90;;
19946;SDS011;10135;50.702;7.276;2022-07-29T07:35:42;3.33;;;1.70;;
19946;SDS011;10135;50.702;7.276;2022-07-29T07:37:44;6.75;;;2.05;;
19946;SDS011;10135;50.702;7.276;2022-07-29T07:39:44;5.10;;;1.92;;
19946;SDS011;10135;50.702;7.276;2022-07-29T07:41:45;2.75;;;2.13;;
19946;SDS011;10135;50.702;7.276;2022-07-29T07:43:46;3.28;;;1.92;;
19946;SDS011;10135;50.702;7.276;2022-07-29T07:45:46;4.53;;;2.03;;
19946;SDS011;10135;50.702;7.276;2022-07-29T07:47:47;3.80;;;1.90;;
19946;SDS011;10135;50.702;7.276;2022-07-29T07:49:48;4.10;;;2.00;;
19946;SDS011;10135;50.702;7.276;2022-07-29T07:51:50;4.75;;;2.22;;
19946;SDS011;10135;50.702;7.276;2022-07-29T07:53:52;1.80;;;1.60;;
19946;SDS011;10135;50.702;7.276;2022-07-29T07:55:53;2.33;;;2.03;;
19946;SDS011;10135;50.702;7.276;2022-07-29T07:57:54;3.05;;;1.80;;
19946;SDS011;10135;50.702;7.276;2022-07-29T07:59:55;5.68;;;1.90;;
19946;SDS011;10135;50.702;7.276;2022-07-29T08:01:55;2.85;;;1.88;;
19946;SDS011;10135;50.702;7.276;2022-07-29T08:03:56;6.50;;;1.80;;
19946;SDS011;10135;50.702;7.276;2022-07-29T08:05:57;2.33;;;1.90;;
19946;SDS011;10135;50.702;7.276;2022-07-29T08:07:57;2.15;;;1.98;;
19946;SDS011;10135;50.702;7.276;2022-07-29T08:09:58;2.47;;;1.67;;
19946;SDS011;10135;50.702;7.276;2022-07-29T08:11:59;1.88;;;1.75;;
19946;SDS011;10135;50.702;7.276;2022-07-29T08:14:03;2.78;;;1.67;;
19946;SDS011;10135;50.702;7.276;2022-07-29T08:16:04;2.97;;;1.85;;
19946;SDS011;10135;50.702;7.276;2022-07-29T08:18:12;4.63;;;1.92;;
19946;SDS011;10135;50.702;7.276;2022-07-29T08:20:13;1.80;;;1.70;;
19946;SDS011;10135;50.702;7.276;2022-07-29T08:22:14;1.75;;;1.65;;
19946;SDS011;10135;50.702;7.276;2022-07-29T08:24:15;2.70;;;1.85;;
19946;SDS011;10135;50.702;7.276;2022-07-29T08:26:34;3.22;;;1.77;;
19946;SDS011;10135;50.702;7.276;2022-07-29T08:28:35;2.53;;;1.80;;
19946;SDS011;10135;50.702;7.276;2022-07-29T08:30:40;2.35;;;1.60;;
19946;SDS011;10135;50.702;7.276;2022-07-29T08:32:41;1.70;;;1.60;;
19946;SDS011;10135;50.702;7.276;2022-07-29T08:34:42;1.70;;;1.58;;
19946;SDS011;10135;50.702;7.276;2022-07-29T08:36:44;2.08;;;1.65;;
19946;SDS011;10135;50.702;7.276;2022-07-29T08:38:45;2.83;;;1.40;;
19946;SDS011;10135;50.702;7.276;2022-07-29T08:40:45;4.07;;;1.90;;
19946;SDS011;10135;50.702;7.276;2022-07-29T08:42:46;2.28;;;1.75;;
19946;SDS011;10135;50.702;7.276;2022-07-29T08:44:48;2.15;;;1.90;;
19946;SDS011;10135;50.702;7.276;2022-07-29T08:46:50;3.20;;;1.60;;
19946;SDS011;10135;50.702;7.276;2022-07-29T08:48:51;3.03;;;1.60;;
19946;SDS011;10135;50.702;7.276;2022-07-29T08:50:55;2.90;;;1.60;;
19946;SDS011;10135;50.702;7.276;2022-07-29T08:52:56;1.98;;;1.70;;
19946;SDS011;10135;50.702;7.276;2022-07-29T08:54:57;2.47;;;2.10;;
19946;SDS011;10135;50.702;7.276;2022-07-29T08:56:59;1.90;;;1.80;;
19946;SDS011;10135;50.702;7.276;2022-07-29T08:59:02;2.05;;;1.52;;
19946;SDS011;10135;50.702;7.276;2022-07-29T09:01:05;1.65;;;1.55;;
19946;SDS011;10135;50.702;7.276;2022-07-29T09:03:07;3.92;;;1.80;;
19946;SDS011;10135;50.702;7.276;2022-07-29T09:05:10;1.80;;;1.70;;
19946;SDS011;10135;50.702;7.276;2022-07-29T09:07:14;2.05;;;1.70;;
19946;SDS011;10135;50.702;7.276;2022-07-29T09:09:16;1.83;;;1.70;;
19946;SDS011;10135;50.702;7.276;2022-07-29T09:11:17;1.88;;;1.75;;
19946;SDS011;10135;50.702;7.276;2022-07-29T09:13:18;1.70;;;1.60;;
19946;SDS011;10135;50.702;7.276;2022-07-29T09:15:19;1.80;;;1.70;;
19946;SDS011;10135;50.702;7.276;2022-07-29T09:17:38;1.75;;;1.65;;
19946;SDS011;10135;50.702;7.276;2022-07-29T09:19:46;1.98;;;1.80;;
19946;SDS011;10135;50.702;7.276;2022-07-29T09:21:46;1.48;;;1.38;;
19946;SDS011;10135;50.702;7.276;2022-07-29T09:26:11;1.70;;;1.60;;
19946;SDS011;10135;50.702;7.276;2022-07-29T09:28:16;1.70;;;1.60;;
19946;SDS011;10135;50.702;7.276;2022-07-29T09:30:18;1.95;;;1.80;;
19946;SDS011;10135;50.702;7.276;2022-07-29T09:32:18;2.15;;;1.80;;
19946;SDS011;10135;50.702;7.276;2022-07-29T09:36:25;2.40;;;1.90;;
19946;SDS011;10135;50.702;7.276;2022-07-29T09:38:26;3.88;;;1.95;;
19946;SDS011;10135;50.702;7.276;2022-07-29T09:40:27;2.05;;;1.83;;
19946;SDS011;10135;50.702;7.276;2022-07-29T09:42:29;1.90;;;1.80;;
19946;SDS011;10135;50.702;7.276;2022-07-29T09:46:59;3.55;;;1.83;;
19946;SDS011;10135;50.702;7.276;2022-07-29T09:49:09;1.90;;;1.80;;
19946;SDS011;10135;50.702;7.276;2022-07-29T09:51:18;1.80;;;1.70;;
19946;SDS011;10135;50.702;7.276;2022-07-29T09:53:30;2.40;;;1.88;;
19946;SDS011;10135;50.702;7.276;2022-07-29T09:55:47;1.98;;;1.88;;
19946;SDS011;10135;50.702;7.276;2022-07-29T09:57:50;3.80;;;1.92;;
19946;SDS011;10135;50.702;7.276;2022-07-29T09:59:55;2.25;;;2.00;;
19946;SDS011;10135;50.702;7.276;2022-07-29T10:02:10;2.10;;;1.80;;
19946;SDS011;10135;50.702;7.276;2022-07-29T10:04:12;1.88;;;1.70;;
19946;SDS011;10135;50.702;7.276;2022-07-29T10:06:13;2.22;;;1.70;;
19946;SDS011;10135;50.702;7.276;2022-07-29T10:08:14;1.80;;;1.70;;
19946;SDS011;10135;50.702;7.276;2022-07-29T10:10:31;1.60;;;1.50;;
19946;SDS011;10135;50.702;7.276;2022-07-29T10:12:34;2.05;;;1.83;;
19946;SDS011;10135;50.702;7.276;2022-07-29T10:14:53;2.40;;;1.95;;
19946;SDS011;10135;50.702;7.276;2022-07-29T10:16:54;3.97;;;2.28;;
19946;SDS011;10135;50.702;7.276;2022-07-29T10:18:55;1.55;;;1.50;;
19946;SDS011;10135;50.702;7.276;2022-07-29T10:20:56;1.90;;;1.80;;
19946;SDS011;10135;50.702;7.276;2022-07-29T10:22:57;2.40;;;1.90;;
19946;SDS011;10135;50.702;7.276;2022-07-29T10:24:58;2.75;;;1.83;;
19946;SDS011;10135;50.702;7.276;2022-07-29T10:27:00;1.90;;;1.80;;
19946;SDS011;10135;50.702;7.276;2022-07-29T10:29:04;2.75;;;1.90;;
19946;SDS011;10135;50.702;7.276;2022-07-29T10:31:05;2.13;;;1.80;;
19946;SDS011;10135;50.702;7.276;2022-07-29T10:36:21;2.25;;;2.05;;
19946;SDS011;10135;50.702;7.276;2022-07-29T10:46:06;2.22;;;1.55;;
19946;SDS011;10135;50.702;7.276;2022-07-29T10:48:08;2.13;;;2.03;;
19946;SDS011;10135;50.702;7.276;2022-07-29T10:50:09;1.70;;;1.60;;
19946;SDS011;10135;50.702;7.276;2022-07-29T10:52:09;2.20;;;2.00;;
19946;SDS011;10135;50.702;7.276;2022-07-29T10:54:10;2.10;;;1.70;;
19946;SDS011;10135;50.702;7.276;2022-07-29T10:56:23;3.45;;;1.88;;
19946;SDS011;10135;50.702;7.276;2022-07-29T10:58:34;2.13;;;1.80;;
19946;SDS011;10135;50.702;7.276;2022-07-29T11:00:35;2.97;;;1.92;;
19946;SDS011;10135;50.702;7.276;2022-07-29T11:09:14;3.22;;;2.10;;
19946;SDS011;10135;50.702;7.276;2022-07-29T11:15:56;2.80;;;1.80;;
19946;SDS011;10135;50.702;7.276;2022-07-29T11:20:30;3.80;;;1.98;;
19946;SDS011;10135;50.702;7.276;2022-07-29T11:22:35;2.97;;;1.90;;
19946;SDS011;10135;50.702;7.276;2022-07-29T11:24:37;4.03;;;2.13;;
19946;SDS011;10135;50.702;7.276;2022-07-29T11:26:38;2.17;;;2.08;;
19946;SDS011;10135;50.702;7.276;2022-07-29T11:29:00;2.30;;;2.10;;
19946;SDS011;10135;50.702;7.276;2022-07-29T11:33:42;3.70;;;2.10;;
19946;SDS011;10135;50.702;7.276;2022-07-29T11:35:43;2.75;;;2.20;;
19946;SDS011;10135;50.702;7.276;2022-07-29T11:38:26;3.58;;;2.03;;
19946;SDS011;10135;50.702;7.276;2022-07-29T11:40:28;2.08;;;1.88;;
19946;SDS011;10135;50.702;7.276;2022-07-29T11:46:58;3.00;;;1.98;;
19946;SDS011;10135;50.702;7.276;2022-07-29T11:49:00;7.30;;;2.28;;
19946;SDS011;10135;50.702;7.276;2022-07-29T11:51:02;4.60;;;2.33;;
19946;SDS011;10135;50.702;7.276;2022-07-29T11:53:11;2.45;;;2.05;;
19946;SDS011;10135;50.702;7.276;2022-07-29T11:57:17;4.32;;;2.30;;
19946;SDS011;10135;50.702;7.276;2022-07-29T11:59:19;3.40;;;2.13;;
19946;SDS011;10135;50.702;7.276;2022-07-29T12:01:21;2.45;;;2.20;;
19946;SDS011;10135;50.702;7.276;2022-07-29T12:03:27;2.67;;;2.10;;
19946;SDS011;10135;50.702;7.276;2022-07-29T12:07:42;2.97;;;2.00;;
19946;SDS011;10135;50.702;7.276;2022-07-29T12:09:52;2.67;;;1.98;;
19946;SDS011;10135;50.702;7.276;2022-07-29T12:11:56;4.60;;;2.20;;
19946;SDS011;10135;50.702;7.276;2022-07-29T12:13:58;5.72;;;2.28;;
19946;SDS011;10135;50.702;7.276;2022-07-29T12:15:59;2.72;;;2.08;;
19946;SDS011;10135;50.702;7.276;2022-07-29T12:18:09;2.83;;;2.08;;
19946;SDS011;10135;50.702;7.276;2022-07-29T12:20:25;2.85;;;2.00;;
19946;SDS011;10135;50.702;7.276;2022-07-29T12:22:29;4.30;;;2.20;;
19946;SDS011;10135;50.702;7.276;2022-07-29T12:24:42;6.35;;;2.35;;
19946;SDS011;10135;50.702;7.276;2022-07-29T12:26:56;2.38;;;2.17;;
19946;SDS011;10135;50.702;7.276;2022-07-29T12:28:59;2.88;;;2.10;;
19946;SDS011;10135;50.702;7.276;2022-07-29T12:31:00;2.33;;;2.10;;
19946;SDS011;10135;50.702;7.276;2022-07-29T12:33:01;5.38;;;2.30;;
19946;SDS011;10135;50.702;7.276;2022-07-29T12:35:14;3.28;;;2.10;;
19946;SDS011;10135;50.702;7.276;2022-07-29T12:37:21;2.72;;;2.15;;
19946;SDS011;10135;50.702;7.276;2022-07-29T12:39:22;7.35;;;3.40;;
19946;SDS011;10135;50.702;7.276;2022-07-29T12:41:29;5.68;;;3.85;;
19946;SDS011;10135;50.702;7.276;2022-07-29T12:43:31;8.32;;;3.80;;
19946;SDS011;10135;50.702;7.276;2022-07-29T12:45:32;6.82;;;3.10;;
19946;SDS011;10135;50.702;7.276;2022-07-29T12:47:32;5.57;;;3.45;;
19946;SDS011;10135;50.702;7.276;2022-07-29T12:49:50;6.25;;;3.08;;
19946;SDS011;10135;50.702;7.276;2022-07-29T12:52:24;6.95;;;4.60;;
19946;SDS011;10135;50.702;7.276;2022-07-29T12:54:26;6.40;;;4.15;;
19946;SDS011;10135;50.702;7.276;2022-07-29T12:56:27;4.90;;;3.55;;
19946;SDS011;10135;50.702;7.276;2022-07-29T12:58:29;5.63;;;3.35;;
19946;SDS011;10135;50.702;7.276;2022-07-29T13:00:35;4.53;;;3.10;;
19946;SDS011;10135;50.702;7.276;2022-07-29T13:02:36;4.15;;;2.97;;
19946;SDS011;10135;50.702;7.276;2022-07-29T13:04:38;5.80;;;2.90;;
19946;SDS011;10135;50.702;7.276;2022-07-29T13:06:40;4.38;;;2.90;;
19946;SDS011;10135;50.702;7.276;2022-07-29T13:11:29;2.65;;;2.40;;
19946;SDS011;10135;50.702;7.276;2022-07-29T13:13:49;2.53;;;2.28;;
19946;SDS011;10135;50.702;7.276;2022-07-29T13:16:04;4.28;;;2.60;;
19946;SDS011;10135;50.702;7.276;2022-07-29T13:20:32;2.63;;;2.00;;
19946;SDS011;10135;50.702;7.276;2022-07-29T13:22:33;3.45;;;2.20;;
19946;SDS011;10135;50.702;7.276;2022-07-29T13:24:34;4.88;;;2.50;;